createdAt,value
2022-08-26T00:00:21.181Z,15.69
2022-08-26T00:01:29.746Z,15.00
2022-08-26T00:02:31.968Z,15.00
2022-08-26T00:03:36.627Z,17.56
2022-08-26T00:04:41.396Z,17.81
2022-08-26T00:05:47.314Z,15.75
2022-08-26T00:06:51.557Z,14.75
2022-08-26T00:07:57.157Z,16.25
2022-08-26T00:09:01.302Z,17.12
2022-08-26T00:10:07.662Z,17.93
2022-08-26T00:11:11.867Z,17.00
2022-08-26T00:12:16.071Z,13.31
2022-08-26T00:13:21.712Z,12.25
2022-08-26T00:14:30.804Z,17.31
2022-08-26T00:15:31.685Z,13.75
2022-08-26T00:16:40.848Z,12.31
2022-08-26T00:17:44.221Z,18.12
2022-08-26T00:18:48.326Z,15.69
2022-08-26T00:19:53.386Z,17.37
2022-08-26T00:20:58.139Z,17.75
2022-08-26T00:22:02.133Z,16.50
2022-08-26T00:23:08.945Z,16.19
2022-08-26T00:24:13.222Z,13.50
2022-08-26T00:25:19.406Z,16.06
2022-08-26T00:26:24.066Z,17.50
2022-08-26T00:27:31.294Z,16.73
2022-08-26T00:28:37.167Z,14.80
2022-08-26T00:29:41.267Z,17.31
2022-08-26T00:30:46.712Z,14.87
2022-08-26T00:31:51.521Z,17.31
2022-08-26T00:32:55.935Z,16.00
2022-08-26T00:34:00.082Z,16.50
2022-08-26T00:35:05.896Z,15.00
2022-08-26T00:36:12.871Z,15.94
2022-08-26T00:37:17.060Z,15.88
2022-08-26T00:38:21.116Z,16.00
2022-08-26T00:39:27.107Z,15.56
2022-08-26T00:40:35.282Z,11.63
2022-08-26T00:41:41.619Z,16.87
2022-08-26T00:42:46.142Z,15.56
2022-08-26T00:43:52.113Z,12.00
2022-08-26T00:44:57.121Z,16.69
2022-08-26T00:46:22.561Z,14.69
2022-08-26T00:47:35.267Z,14.87
2022-08-26T00:48:44.327Z,16.69
2022-08-26T00:49:49.726Z,13.00
2022-08-26T00:51:02.617Z,15.13
2022-08-26T00:52:12.082Z,15.69
2022-08-26T00:53:17.148Z,15.75
2022-08-26T00:54:24.367Z,13.94
2022-08-26T00:55:39.041Z,16.31
2022-08-26T00:56:55.510Z,13.81
2022-08-26T00:58:02.209Z,15.27
2022-08-26T00:59:10.305Z,15.63
2022-08-26T01:00:18.877Z,14.75
2022-08-26T01:01:24.600Z,13.73
2022-08-26T01:02:32.047Z,14.73
2022-08-26T01:03:39.972Z,15.13
2022-08-26T01:04:44.601Z,16.75
2022-08-26T01:05:50.215Z,12.63
2022-08-26T01:06:56.397Z,15.44
2022-08-26T01:08:00.414Z,14.06
2022-08-26T01:09:11.993Z,14.87
2022-08-26T01:10:18.708Z,15.13
2022-08-26T01:11:23.394Z,15.88
2022-08-26T01:12:30.526Z,16.25
2022-08-26T01:13:36.897Z,14.75
2022-08-26T01:14:41.300Z,15.56
2022-08-26T01:15:49.817Z,17.56
2022-08-26T01:16:55.974Z,13.53
2022-08-26T01:18:01.355Z,12.50
2022-08-26T01:19:31.079Z,16.06
2022-08-26T01:20:57.751Z,15.13
2022-08-26T01:22:11.857Z,13.62
2022-08-26T01:23:16.060Z,13.69
2022-08-26T01:24:20.522Z,14.94
2022-08-26T01:25:27.742Z,13.25
2022-08-26T01:26:35.078Z,11.12
2022-08-26T01:27:39.774Z,14.56
2022-08-26T01:28:44.880Z,15.81
2022-08-26T01:29:51.916Z,13.13
2022-08-26T01:30:59.837Z,12.94
2022-08-26T01:32:09.016Z,14.56
2022-08-26T01:33:16.004Z,13.75
2022-08-26T01:34:31.732Z,15.06
2022-08-26T01:35:36.453Z,12.50
2022-08-26T01:36:41.654Z,13.75
2022-08-26T01:37:48.342Z,14.00
2022-08-26T01:38:52.922Z,15.75
2022-08-26T01:39:58.951Z,15.25
2022-08-26T01:41:03.751Z,15.31
2022-08-26T01:42:12.448Z,15.06
2022-08-26T01:43:19.608Z,12.69
2022-08-26T01:44:28.127Z,6.00
2022-08-26T01:45:35.237Z,13.62
2022-08-26T01:46:39.559Z,13.50
2022-08-26T01:47:43.740Z,14.81
2022-08-26T01:48:54.421Z,12.13
2022-08-26T01:50:02.929Z,15.50
2022-08-26T01:51:09.707Z,13.56
2022-08-26T01:52:16.647Z,15.13
2022-08-26T01:53:23.741Z,13.06
2022-08-26T01:54:27.880Z,13.94
2022-08-26T01:55:34.046Z,14.56
2022-08-26T01:56:38.835Z,11.81
2022-08-26T01:57:48.175Z,15.69
2022-08-26T01:58:58.013Z,13.94
2022-08-26T02:00:04.572Z,13.56
2022-08-26T02:01:09.642Z,12.75
2022-08-26T02:02:15.611Z,13.38
2022-08-26T02:03:21.138Z,14.50
2022-08-26T02:04:39.930Z,13.06
2022-08-26T02:05:46.652Z,13.56
2022-08-26T02:06:53.665Z,12.31
2022-08-26T02:07:58.481Z,13.06
2022-08-26T02:09:04.641Z,14.19
2022-08-26T02:10:13.274Z,13.44
2022-08-26T02:11:18.432Z,13.44
2022-08-26T02:12:23.406Z,15.06
2022-08-26T02:13:29.963Z,13.50
2022-08-26T02:14:43.867Z,15.38
2022-08-26T02:15:45.322Z,11.25
2022-08-26T02:16:52.309Z,13.88
2022-08-26T02:17:58.037Z,13.38
2022-08-26T02:19:03.996Z,14.69
2022-08-26T02:20:13.339Z,14.06
2022-08-26T02:21:18.174Z,14.56
2022-08-26T02:22:24.713Z,12.00
2022-08-26T02:23:28.907Z,12.81
2022-08-26T02:24:53.648Z,11.94
2022-08-26T02:26:09.457Z,10.25
2022-08-26T02:27:17.399Z,13.25
2022-08-26T02:28:20.509Z,12.31
2022-08-26T02:29:27.513Z,12.88
2022-08-26T02:30:34.830Z,13.19
2022-08-26T02:31:39.719Z,14.25
2022-08-26T02:32:43.877Z,14.00
2022-08-26T02:33:47.978Z,10.75
2022-08-26T02:34:52.517Z,12.75
2022-08-26T02:35:56.870Z,9.94
2022-08-26T02:37:03.322Z,13.25
2022-08-26T02:38:10.196Z,12.50
2022-08-26T02:39:19.536Z,13.50
2022-08-26T02:40:24.318Z,13.19
2022-08-26T02:41:28.806Z,12.63
2022-08-26T02:42:32.852Z,12.06
2022-08-26T02:43:37.326Z,13.56
2022-08-26T02:44:41.371Z,13.25
2022-08-26T02:45:45.443Z,13.13
2022-08-26T02:46:49.625Z,13.19
2022-08-26T02:47:54.674Z,11.56
2022-08-26T02:49:00.475Z,13.50
2022-08-26T02:50:06.291Z,12.19
2022-08-26T02:51:10.356Z,13.25
2022-08-26T02:52:14.657Z,11.88
2022-08-26T02:53:23.171Z,13.56
2022-08-26T02:54:24.527Z,13.94
2022-08-26T02:55:28.710Z,13.31
2022-08-26T02:56:37.617Z,10.44
2022-08-26T02:57:41.684Z,13.44
2022-08-26T02:58:46.010Z,13.75
2022-08-26T02:59:50.176Z,12.88
2022-08-26T03:00:54.759Z,12.94
2022-08-26T03:01:58.896Z,13.13
2022-08-26T03:03:04.437Z,13.44
2022-08-26T03:04:11.765Z,12.75
2022-08-26T03:05:16.789Z,12.81
2022-08-26T03:06:21.864Z,12.81
2022-08-26T03:07:26.265Z,13.50
2022-08-26T03:08:30.307Z,14.50
2022-08-26T03:09:34.436Z,12.63
2022-08-26T03:10:39.974Z,11.81
2022-08-26T03:11:43.962Z,12.94
2022-08-26T03:12:48.843Z,11.38
2022-08-26T03:13:53.043Z,14.00
2022-08-26T03:14:57.594Z,12.44
2022-08-26T03:16:03.118Z,15.13
2022-08-26T03:17:07.221Z,13.94
2022-08-26T03:18:12.947Z,10.38
2022-08-26T03:19:18.992Z,13.38
2022-08-26T03:20:23.742Z,10.81
2022-08-26T03:21:27.988Z,12.13
2022-08-26T03:22:33.428Z,13.00
2022-08-26T03:23:38.442Z,12.25
2022-08-26T03:24:45.984Z,11.81
2022-08-26T03:25:52.845Z,11.69
2022-08-26T03:26:57.440Z,12.44
2022-08-26T03:28:01.409Z,12.63
2022-08-26T03:29:07.021Z,11.63
2022-08-26T03:30:13.015Z,12.31
2022-08-26T03:31:18.726Z,11.38
2022-08-26T03:32:24.367Z,12.69
2022-08-26T03:33:30.154Z,14.19
2022-08-26T03:34:35.514Z,13.75
2022-08-26T03:35:42.273Z,13.25
2022-08-26T03:36:46.424Z,13.44
2022-08-26T03:37:50.399Z,13.50
2022-08-26T03:38:54.369Z,13.44
2022-08-26T03:39:58.443Z,11.38
2022-08-26T03:41:02.802Z,13.19
2022-08-26T03:42:07.087Z,11.06
2022-08-26T03:43:12.873Z,13.69
2022-08-26T03:44:17.399Z,13.13
2022-08-26T03:46:58.772Z,13.69
2022-08-26T03:47:59.889Z,8.94
2022-08-26T03:49:05.699Z,12.19
2022-08-26T03:50:12.524Z,13.19
2022-08-26T03:51:19.091Z,9.75
2022-08-26T03:52:23.349Z,9.88
2022-08-26T03:53:27.585Z,12.25
2022-08-26T03:54:31.977Z,11.44
2022-08-26T03:55:36.010Z,12.44
2022-08-26T03:56:40.526Z,14.31
2022-08-26T03:57:44.716Z,12.63
2022-08-26T03:58:51.301Z,11.75
2022-08-26T03:59:55.267Z,11.19
2022-08-26T04:01:00.396Z,11.88
2022-08-26T04:02:04.629Z,12.56
2022-08-26T04:03:15.844Z,11.69
2022-08-26T04:04:17.792Z,11.75
2022-08-26T04:05:23.786Z,13.06
2022-08-26T04:06:31.233Z,12.44
2022-08-26T04:07:36.528Z,13.13
2022-08-26T04:08:42.774Z,11.56
2022-08-26T04:09:46.526Z,12.56
2022-08-26T04:10:51.058Z,11.31
2022-08-26T04:11:56.784Z,11.31
2022-08-26T04:13:01.140Z,12.75
2022-08-26T04:14:08.485Z,11.88
2022-08-26T04:15:15.511Z,11.19
2022-08-26T04:16:20.893Z,10.31
2022-08-26T04:17:26.735Z,11.25
2022-08-26T04:18:36.923Z,11.25
2022-08-26T04:19:36.474Z,12.06
2022-08-26T04:20:40.630Z,12.19
2022-08-26T04:21:46.748Z,14.81
2022-08-26T04:22:50.806Z,11.75
2022-08-26T04:23:56.571Z,12.13
2022-08-26T04:25:01.212Z,10.94
2022-08-26T04:26:07.413Z,13.81
2022-08-26T04:27:13.293Z,11.12
2022-08-26T04:28:19.139Z,13.25
2022-08-26T04:29:26.330Z,11.50
2022-08-26T04:30:30.510Z,14.44
2022-08-26T04:31:37.734Z,10.63
2022-08-26T04:32:42.427Z,10.00
2022-08-26T04:33:49.739Z,12.44
2022-08-26T04:34:53.987Z,11.38
2022-08-26T04:36:05.572Z,11.38
2022-08-26T04:37:10.656Z,11.31
2022-08-26T04:38:14.789Z,9.56
2022-08-26T04:39:19.434Z,12.19
2022-08-26T04:40:25.946Z,10.94
2022-08-26T04:41:31.512Z,10.81
2022-08-26T04:42:35.825Z,9.56
2022-08-26T04:43:41.615Z,11.69
2022-08-26T04:44:48.417Z,10.13
2022-08-26T04:45:54.759Z,13.44
2022-08-26T04:46:59.092Z,13.44
2022-08-26T04:48:03.599Z,10.75
2022-08-26T04:49:08.760Z,11.75
2022-08-26T04:50:13.194Z,10.00
2022-08-26T04:51:21.679Z,13.50
2022-08-26T04:52:26.157Z,31.87
2022-08-26T04:53:32.546Z,28.12
2022-08-26T04:54:37.879Z,29.44
2022-08-26T04:55:45.122Z,16.12
2022-08-26T04:56:49.402Z,7.00
2022-08-26T04:57:57.027Z,5.81
2022-08-26T04:59:00.035Z,7.87
2022-08-26T05:00:08.741Z,8.25
2022-08-26T05:01:12.921Z,12.00
2022-08-26T05:02:17.047Z,11.00
2022-08-26T05:03:21.271Z,11.19
2022-08-26T05:04:25.426Z,11.50
2022-08-26T05:05:29.489Z,11.69
2022-08-26T05:06:37.096Z,11.44
2022-08-26T05:07:39.474Z,11.44
2022-08-26T05:08:45.113Z,13.00
2022-08-26T05:09:50.452Z,11.69
2022-08-26T05:10:56.232Z,9.94
2022-08-26T05:12:00.532Z,12.44
2022-08-26T05:13:04.667Z,7.62
2022-08-26T05:14:12.398Z,12.06
2022-08-26T05:15:16.179Z,11.63
2022-08-26T05:16:20.979Z,9.50
2022-08-26T05:17:25.164Z,11.50
2022-08-26T05:18:29.224Z,11.19
2022-08-26T05:19:33.277Z,11.88
2022-08-26T05:20:46.347Z,10.25
2022-08-26T05:21:51.152Z,11.56
2022-08-26T05:22:55.214Z,9.69
2022-08-26T05:23:59.447Z,11.25
2022-08-26T05:25:03.639Z,9.81
2022-08-26T05:26:09.255Z,9.13
2022-08-26T05:27:14.356Z,9.63
2022-08-26T05:28:20.685Z,9.00
2022-08-26T05:29:25.195Z,9.88
2022-08-26T05:30:30.803Z,9.88
2022-08-26T05:31:38.289Z,8.13
2022-08-26T05:32:42.437Z,8.63
2022-08-26T05:33:46.645Z,8.63
2022-08-26T05:34:56.768Z,8.50
2022-08-26T05:36:05.345Z,5.62
2022-08-26T05:37:09.301Z,8.63
2022-08-26T05:38:16.284Z,7.69
2022-08-26T05:39:22.458Z,9.25
2022-08-26T05:40:31.355Z,8.75
2022-08-26T05:41:38.796Z,8.56
2022-08-26T05:42:43.395Z,10.50
2022-08-26T05:43:47.522Z,8.44
2022-08-26T05:44:56.108Z,7.25
2022-08-26T05:46:06.540Z,9.69
2022-08-26T05:47:10.689Z,9.06
2022-08-26T05:48:18.834Z,7.50
2022-08-26T05:49:26.436Z,6.44
2022-08-26T05:50:30.681Z,8.19
2022-08-26T05:51:35.284Z,7.62
2022-08-26T05:52:42.873Z,6.25
2022-08-26T05:53:54.350Z,7.37
2022-08-26T05:54:51.184Z,7.25
2022-08-26T05:55:56.034Z,6.75
2022-08-26T05:57:00.623Z,6.87
2022-08-26T05:58:06.234Z,7.69
2022-08-26T05:59:17.313Z,7.19
2022-08-26T06:00:24.349Z,23.31
2022-08-26T06:01:29.910Z,7.81
2022-08-26T06:02:33.981Z,28.81
2022-08-26T06:03:40.224Z,1.06
2022-08-26T06:04:44.520Z,7.12
2022-08-26T06:05:48.583Z,10.88
2022-08-26T06:06:54.931Z,7.56
2022-08-26T06:08:00.569Z,8.19
2022-08-26T06:09:09.324Z,7.56
2022-08-26T06:10:31.605Z,6.69
2022-08-26T06:11:23.535Z,7.62
2022-08-26T06:12:28.552Z,6.81
2022-08-26T06:13:34.001Z,6.69
2022-08-26T06:14:39.247Z,1.69
2022-08-26T06:15:46.120Z,6.75
2022-08-26T06:16:50.225Z,7.81
2022-08-26T06:17:54.390Z,6.37
2022-08-26T06:18:58.408Z,5.44
2022-08-26T06:20:02.502Z,7.06
2022-08-26T06:21:26.903Z,3.94
2022-08-26T06:22:31.009Z,7.25
2022-08-26T06:23:35.761Z,6.44
2022-08-26T06:24:54.958Z,7.69
2022-08-26T06:25:45.694Z,6.75
2022-08-26T06:26:53.733Z,6.00
2022-08-26T06:27:59.145Z,7.56
2022-08-26T06:29:05.754Z,5.37
2022-08-26T06:30:10.499Z,7.06
2022-08-26T06:31:16.493Z,6.50
2022-08-26T06:32:20.566Z,7.19
2022-08-26T06:33:25.468Z,1.25
2022-08-26T06:34:31.045Z,69.37
2022-08-26T06:35:42.597Z,9.81
2022-08-26T06:36:47.646Z,8.75
2022-08-26T06:37:51.759Z,7.87
2022-08-26T06:38:58.741Z,8.31
2022-08-26T06:40:03.005Z,6.81
2022-08-26T06:41:14.386Z,7.87
2022-08-26T06:42:16.480Z,8.25
2022-08-26T06:43:23.636Z,7.37
2022-08-26T06:44:28.166Z,5.06
2022-08-26T06:45:32.216Z,6.12
2022-08-26T06:46:36.610Z,4.81
2022-08-26T06:47:40.784Z,5.06
2022-08-26T06:48:47.806Z,5.69
2022-08-26T06:49:51.935Z,5.31
2022-08-26T06:51:14.094Z,5.75
2022-08-26T06:52:24.390Z,6.12
2022-08-26T06:53:25.384Z,6.69
2022-08-26T06:54:29.845Z,4.12
2022-08-26T06:55:34.274Z,4.12
2022-08-26T06:56:43.805Z,6.87
2022-08-26T06:57:48.043Z,5.00
2022-08-26T06:58:54.561Z,6.37
2022-08-26T07:00:00.335Z,5.94
2022-08-26T07:01:11.287Z,6.31
2022-08-26T07:02:13.476Z,5.69
2022-08-26T07:03:17.991Z,12.94
2022-08-26T07:04:27.964Z,6.00
2022-08-26T07:05:34.372Z,2.62
2022-08-26T07:06:41.330Z,6.69
2022-08-26T07:07:48.069Z,6.56
2022-08-26T07:08:54.319Z,6.75
2022-08-26T07:09:58.305Z,6.44
2022-08-26T07:11:09.632Z,6.62
2022-08-26T07:12:13.755Z,4.81
2022-08-26T07:13:17.896Z,6.56
2022-08-26T07:14:23.795Z,5.12
2022-08-26T07:15:31.340Z,5.44
2022-08-26T07:16:34.198Z,6.00
2022-08-26T07:17:39.846Z,6.25
2022-08-26T07:18:45.754Z,5.12
2022-08-26T07:19:50.004Z,5.81
2022-08-26T07:20:54.159Z,6.00
2022-08-26T07:21:59.810Z,5.94
2022-08-26T07:23:03.932Z,3.56
2022-08-26T07:24:11.049Z,5.31
2022-08-26T07:25:15.428Z,3.37
2022-08-26T07:26:23.997Z,4.69
2022-08-26T07:27:29.078Z,6.31
2022-08-26T07:28:33.316Z,4.87
2022-08-26T07:29:38.610Z,4.50
2022-08-26T07:30:42.821Z,5.75
2022-08-26T07:31:47.010Z,4.19
2022-08-26T07:32:57.998Z,4.87
2022-08-26T07:34:01.271Z,4.06
2022-08-26T07:35:09.142Z,4.44
2022-08-26T07:36:15.765Z,4.37
2022-08-26T07:37:20.518Z,4.12
2022-08-26T07:38:24.498Z,5.00
2022-08-26T07:39:31.670Z,4.12
2022-08-26T07:40:37.159Z,4.50
2022-08-26T07:41:42.517Z,2.69
2022-08-26T07:42:49.748Z,3.87
2022-08-26T07:43:54.520Z,4.81
2022-08-26T07:45:01.181Z,4.06
2022-08-26T07:46:09.233Z,2.87
2022-08-26T07:47:25.096Z,3.87
2022-08-26T07:48:22.095Z,3.87
2022-08-26T07:49:27.063Z,3.87
2022-08-26T07:50:49.483Z,3.75
2022-08-26T07:51:39.015Z,3.19
2022-08-26T07:52:45.899Z,4.37
2022-08-26T07:53:52.844Z,4.44
2022-08-26T07:55:00.202Z,2.87
2022-08-26T07:56:04.592Z,4.00
2022-08-26T07:57:09.385Z,3.25
2022-08-26T07:58:14.295Z,3.44
2022-08-26T07:59:19.618Z,3.37
2022-08-26T08:00:26.086Z,4.37
2022-08-26T08:01:30.705Z,0.75
2022-08-26T08:02:35.393Z,3.69
2022-08-26T08:03:39.666Z,3.19
2022-08-26T08:04:43.692Z,3.75
2022-08-26T08:05:48.353Z,2.87
2022-08-26T08:06:56.754Z,4.19
2022-08-26T08:08:27.019Z,3.94
2022-08-26T08:09:09.159Z,3.50
2022-08-26T08:10:17.607Z,3.75
2022-08-26T08:11:23.685Z,2.12
2022-08-26T08:12:27.911Z,4.00
2022-08-26T08:13:31.920Z,3.00
2022-08-26T08:14:36.038Z,3.19
2022-08-26T08:15:42.822Z,2.00
2022-08-26T08:16:48.481Z,2.87
2022-08-26T08:17:56.570Z,2.12
2022-08-26T08:19:00.658Z,2.75
2022-08-26T08:20:05.041Z,15.50
2022-08-26T08:21:22.058Z,4.19
2022-08-26T08:22:44.255Z,9.50
2022-08-26T08:23:28.441Z,11.38
2022-08-26T08:24:33.872Z,4.37
2022-08-26T08:25:38.740Z,3.19
2022-08-26T08:26:42.977Z,2.56
2022-08-26T08:27:47.140Z,3.81
2022-08-26T08:28:53.396Z,1.44
2022-08-26T08:29:57.523Z,2.81
2022-08-26T08:31:03.507Z,2.44
2022-08-26T08:32:11.530Z,2.12
2022-08-26T08:33:13.573Z,1.75
2022-08-26T08:34:18.076Z,2.50
2022-08-26T08:35:23.869Z,2.81
2022-08-26T08:36:32.200Z,3.00
2022-08-26T08:37:34.786Z,2.94
2022-08-26T08:38:38.725Z,2.06
2022-08-26T08:39:44.537Z,2.00
2022-08-26T08:40:51.718Z,2.37
2022-08-26T08:42:10.553Z,2.25
2022-08-26T08:43:21.862Z,1.69
2022-08-26T08:45:47.158Z,1.87
2022-08-26T08:46:55.616Z,2.31
2022-08-26T08:48:13.150Z,1.37
2022-08-26T08:49:24.308Z,2.31
2022-08-26T08:50:36.798Z,1.56
2022-08-26T08:51:46.344Z,2.06
2022-08-26T08:53:17.358Z,1.87
2022-08-26T08:54:01.525Z,4.06
2022-08-26T08:55:10.331Z,2.00
2022-08-26T08:56:33.232Z,2.62
2022-08-26T08:57:42.994Z,2.81
2022-08-26T08:59:06.870Z,2.00
2022-08-26T09:00:17.102Z,2.25
2022-08-26T09:01:43.335Z,3.00
2022-08-26T09:02:52.957Z,2.00
2022-08-26T09:04:05.677Z,1.37
2022-08-26T09:05:27.982Z,1.06
2022-08-26T09:06:34.253Z,2.31
2022-08-26T09:07:47.204Z,2.25
2022-08-26T09:08:52.283Z,2.06
2022-08-26T09:10:05.209Z,1.81
2022-08-26T09:11:09.263Z,1.44
2022-08-26T09:12:29.642Z,2.00
2022-08-26T09:13:31.723Z,0.44
2022-08-26T09:14:36.604Z,1.62
2022-08-26T09:15:58.725Z,1.37
2022-08-26T09:17:11.837Z,1.94
2022-08-26T09:18:35.321Z,0.94
2022-08-26T09:19:42.441Z,1.12
2022-08-26T09:21:07.826Z,1.75
2022-08-26T09:22:16.103Z,2.37
2022-08-26T09:23:20.128Z,2.25
2022-08-26T09:24:28.593Z,7.31
2022-08-26T09:25:32.170Z,1.19
2022-08-26T09:26:43.876Z,0.94
2022-08-26T09:27:50.776Z,0.44
2022-08-26T09:29:03.808Z,0.50
2022-08-26T09:30:11.362Z,0.13
2022-08-26T09:31:27.869Z,0.00
2022-08-26T09:32:31.955Z,0.50
2022-08-26T09:33:39.376Z,0.00
2022-08-26T09:34:54.798Z,0.13
2022-08-26T09:36:25.366Z,0.81
2022-08-26T09:38:53.159Z,0.37
2022-08-26T09:40:02.222Z,0.00
2022-08-26T09:41:12.164Z,1.00
2022-08-26T09:42:25.550Z,0.06
2022-08-26T09:43:30.007Z,0.44
2022-08-26T09:44:36.597Z,0.00
2022-08-26T09:45:50.237Z,0.00
2022-08-26T09:47:00.339Z,0.81
2022-08-26T09:48:08.469Z,1.00
2022-08-26T09:49:30.666Z,0.25
2022-08-26T09:50:56.868Z,0.69
2022-08-26T09:52:06.795Z,0.69
2022-08-26T09:53:17.774Z,0.69
2022-08-26T09:54:30.432Z,0.00
2022-08-26T09:55:36.383Z,0.88
2022-08-26T09:56:41.133Z,0.31
2022-08-26T09:57:48.517Z,0.00
2022-08-26T09:58:53.356Z,0.06
2022-08-26T10:00:00.310Z,0.31
2022-08-26T10:01:10.061Z,1.19
2022-08-26T10:02:35.569Z,1.37
2022-08-26T10:03:40.691Z,0.00
2022-08-26T10:04:53.972Z,2.12
2022-08-26T10:06:03.060Z,1.19
2022-08-26T10:07:07.836Z,1.62
2022-08-26T10:08:32.845Z,1.50
2022-08-26T10:09:39.812Z,1.06
2022-08-26T10:10:46.637Z,1.87
2022-08-26T10:11:58.226Z,2.00
2022-08-26T10:13:09.829Z,1.50
2022-08-26T10:14:34.829Z,1.44
2022-08-26T10:16:01.382Z,1.19
2022-08-26T10:17:08.933Z,1.81
2022-08-26T10:18:18.638Z,1.69
2022-08-26T10:19:25.734Z,2.06
2022-08-26T10:20:34.541Z,1.37
2022-08-26T10:21:52.245Z,2.00
2022-08-26T10:23:08.318Z,1.94
2022-08-26T10:24:15.094Z,1.81
2022-08-26T10:25:23.126Z,2.00
2022-08-26T10:26:44.725Z,1.62
2022-08-26T10:28:03.683Z,1.87
2022-08-26T10:29:22.450Z,0.06
2022-08-26T10:30:39.377Z,1.69
2022-08-26T10:32:03.717Z,2.12
2022-08-26T10:33:10.675Z,2.94
2022-08-26T10:34:16.459Z,1.56
2022-08-26T10:35:21.045Z,2.25
2022-08-26T10:36:36.534Z,1.69
2022-08-26T10:37:41.368Z,2.00
2022-08-26T10:38:47.220Z,3.25
2022-08-26T10:39:58.784Z,2.25
2022-08-26T10:41:11.099Z,1.75
2022-08-26T10:42:20.272Z,2.19
2022-08-26T10:43:35.185Z,2.06
2022-08-26T10:44:43.720Z,2.37
2022-08-26T10:45:53.204Z,2.56
2022-08-26T10:47:03.294Z,2.19
2022-08-26T10:48:16.003Z,1.94
2022-08-26T10:49:20.022Z,2.19
2022-08-26T10:50:28.693Z,2.37
2022-08-26T10:51:35.676Z,1.00
2022-08-26T10:52:42.912Z,2.00
2022-08-26T10:53:55.530Z,1.44
2022-08-26T10:55:14.447Z,1.19
2022-08-26T10:56:25.675Z,0.06
2022-08-26T10:57:48.922Z,1.06
2022-08-26T10:59:04.691Z,0.69
2022-08-26T11:00:19.568Z,0.06
2022-08-26T11:01:36.680Z,0.88
2022-08-26T11:02:47.148Z,0.00
2022-08-26T11:04:16.548Z,0.19
2022-08-26T11:05:22.997Z,0.50
2022-08-26T11:06:29.967Z,0.50
2022-08-26T11:07:45.360Z,0.13
2022-08-26T11:08:51.657Z,0.75
2022-08-26T11:09:57.197Z,0.19
2022-08-26T11:11:02.941Z,0.19
2022-08-26T11:12:10.286Z,1.00
2022-08-26T11:13:14.396Z,0.81
2022-08-26T11:14:28.708Z,0.81
2022-08-26T11:15:32.982Z,0.88
2022-08-26T11:16:43.689Z,0.25
2022-08-26T11:17:53.695Z,1.62
2022-08-26T11:18:59.095Z,1.75
2022-08-26T11:20:08.910Z,0.88
2022-08-26T11:21:44.525Z,1.87
2022-08-26T11:22:50.226Z,2.06
2022-08-26T11:23:54.249Z,2.00
2022-08-26T11:25:01.579Z,0.44
2022-08-26T11:26:32.737Z,1.25
2022-08-26T11:27:28.554Z,0.50
2022-08-26T11:28:44.815Z,0.81
2022-08-26T11:29:57.077Z,1.12
2022-08-26T11:31:06.783Z,0.44
2022-08-26T11:32:27.384Z,1.00
2022-08-26T11:33:52.779Z,1.81
2022-08-26T11:34:59.610Z,1.00
2022-08-26T11:36:12.391Z,0.75
2022-08-26T11:37:13.448Z,0.88
2022-08-26T11:38:28.849Z,2.00
2022-08-26T11:39:57.213Z,1.56
2022-08-26T11:41:07.606Z,1.81
2022-08-26T11:42:29.397Z,1.87
2022-08-26T11:43:34.140Z,2.06
2022-08-26T11:44:49.403Z,1.75
2022-08-26T11:46:12.741Z,1.62
2022-08-26T11:47:31.928Z,0.75
2022-08-26T11:48:39.139Z,1.87
2022-08-26T11:49:43.462Z,2.12
2022-08-26T11:51:10.122Z,1.75
2022-08-26T11:52:20.920Z,1.62
2022-08-26T11:53:27.953Z,3.31
2022-08-26T11:54:35.809Z,1.12
2022-08-26T11:55:40.465Z,2.00
2022-08-26T11:56:47.681Z,1.75
2022-08-26T11:57:54.685Z,1.94
2022-08-26T11:59:02.348Z,2.12
2022-08-26T12:00:12.522Z,2.00
2022-08-26T12:01:31.179Z,2.06
2022-08-26T12:02:35.759Z,1.62
2022-08-26T12:03:48.653Z,2.12
2022-08-26T12:04:54.934Z,2.75
2022-08-26T12:05:59.587Z,1.75
2022-08-26T12:07:09.729Z,2.37
2022-08-26T12:08:13.547Z,1.56
2022-08-26T12:09:29.532Z,1.75
2022-08-26T12:10:34.891Z,1.81
2022-08-26T12:11:40.877Z,1.50
2022-08-26T12:12:49.578Z,2.00
2022-08-26T12:14:02.457Z,1.94
2022-08-26T12:15:15.121Z,2.00
2022-08-26T12:16:22.758Z,1.12
2022-08-26T12:17:29.712Z,0.06
2022-08-26T12:18:37.475Z,1.94
2022-08-26T12:19:41.529Z,1.75
2022-08-26T12:20:45.876Z,1.56
2022-08-26T12:21:53.731Z,1.00
2022-08-26T12:22:59.487Z,1.44
2022-08-26T12:24:04.451Z,1.87
2022-08-26T12:25:11.512Z,2.06
2022-08-26T12:26:31.720Z,1.69
2022-08-26T12:27:38.859Z,1.25
2022-08-26T12:28:48.160Z,1.56
2022-08-26T12:30:12.228Z,1.31
2022-08-26T12:31:31.393Z,1.25
2022-08-26T12:32:39.195Z,1.87
2022-08-26T12:33:48.400Z,1.56
2022-08-26T12:34:52.751Z,2.06
2022-08-26T12:35:57.496Z,1.31
2022-08-26T12:37:04.138Z,1.69
2022-08-26T12:38:13.106Z,2.00
2022-08-26T12:39:34.844Z,1.19
2022-08-26T12:40:45.104Z,1.00
2022-08-26T12:43:09.133Z,1.00
2022-08-26T12:43:35.187Z,1.75
2022-08-26T12:44:38.577Z,0.94
2022-08-26T12:45:45.962Z,1.81
2022-08-26T12:46:50.335Z,1.81
2022-08-26T12:47:57.779Z,1.69
2022-08-26T12:49:03.777Z,2.50
2022-08-26T12:50:11.057Z,1.81
2022-08-26T12:51:24.222Z,0.81
2022-08-26T12:52:32.932Z,1.75
2022-08-26T12:53:40.032Z,1.06
2022-08-26T12:54:47.154Z,1.12
2022-08-26T12:55:57.510Z,2.00
2022-08-26T12:57:13.922Z,2.00
2022-08-26T12:58:26.824Z,0.75
2022-08-26T12:59:30.945Z,1.00
2022-08-26T13:00:37.846Z,0.56
2022-08-26T13:01:48.426Z,1.25
2022-08-26T13:02:53.195Z,1.81
2022-08-26T13:03:59.033Z,2.00
2022-08-26T13:05:04.480Z,0.69
2022-08-26T13:06:17.650Z,0.75
2022-08-26T13:07:25.030Z,0.62
2022-08-26T13:08:29.145Z,1.62
2022-08-26T13:09:33.374Z,1.44
2022-08-26T13:10:40.553Z,1.12
2022-08-26T13:11:50.256Z,1.31
2022-08-26T13:12:55.964Z,0.88
2022-08-26T13:14:24.352Z,1.06
2022-08-26T13:15:26.872Z,0.75
2022-08-26T13:16:33.053Z,0.69
2022-08-26T13:17:48.434Z,1.06
2022-08-26T13:18:53.126Z,1.19
2022-08-26T13:20:54.743Z,1.00
2022-08-26T13:21:21.014Z,0.00
2022-08-26T13:22:27.334Z,1.06
2022-08-26T13:23:31.445Z,0.88
2022-08-26T13:24:38.266Z,1.31
2022-08-26T13:25:42.343Z,1.81
2022-08-26T13:26:48.806Z,2.19
2022-08-26T13:27:53.015Z,0.94
2022-08-26T13:29:02.222Z,2.06
2022-08-26T13:30:20.498Z,1.94
2022-08-26T13:31:19.215Z,2.06
2022-08-26T13:32:27.177Z,0.31
2022-08-26T13:33:30.926Z,1.31
2022-08-26T13:34:37.158Z,2.50
2022-08-26T13:35:41.296Z,1.62
2022-08-26T13:36:46.121Z,1.31
2022-08-26T13:37:54.168Z,1.75
2022-08-26T13:38:58.345Z,1.00
2022-08-26T13:40:04.343Z,1.12
2022-08-26T13:41:11.239Z,1.00
2022-08-26T13:42:25.293Z,0.00
2022-08-26T13:43:26.869Z,0.75
2022-08-26T13:44:31.735Z,1.56
2022-08-26T13:45:39.900Z,1.44
2022-08-26T13:46:53.402Z,0.37
2022-08-26T13:47:57.488Z,0.31
2022-08-26T13:49:01.841Z,1.75
2022-08-26T13:50:06.461Z,0.75
2022-08-26T13:51:10.577Z,1.31
2022-08-26T13:52:17.742Z,1.75
2022-08-26T13:53:25.843Z,1.44
2022-08-26T13:54:32.968Z,1.62
2022-08-26T13:55:37.209Z,1.19
2022-08-26T13:56:44.539Z,1.25
2022-08-26T13:57:47.097Z,1.44
2022-08-26T13:58:51.384Z,1.25
2022-08-26T13:59:57.708Z,2.25
2022-08-26T14:01:01.982Z,1.87
2022-08-26T14:02:08.969Z,2.25
2022-08-26T14:03:13.702Z,2.00
2022-08-26T14:04:27.014Z,1.00
2022-08-26T14:05:35.508Z,2.19
2022-08-26T14:06:41.778Z,1.25
2022-08-26T14:07:49.479Z,1.00
2022-08-26T14:08:53.318Z,1.75
2022-08-26T14:10:00.793Z,1.37
2022-08-26T14:11:06.388Z,1.12
2022-08-26T14:12:10.612Z,1.00
2022-08-26T14:13:15.552Z,0.31
2022-08-26T14:14:21.256Z,0.37
2022-08-26T14:15:27.027Z,1.00
2022-08-26T14:16:36.929Z,1.31
2022-08-26T14:17:40.702Z,1.00
2022-08-26T14:18:50.499Z,0.94
2022-08-26T14:19:52.981Z,1.44
2022-08-26T14:20:57.227Z,0.00
2022-08-26T14:22:01.872Z,1.37
2022-08-26T14:24:28.858Z,1.25
2022-08-26T14:25:28.042Z,0.88
2022-08-26T14:26:32.571Z,1.00
2022-08-26T14:27:39.406Z,1.69
2022-08-26T14:29:00.161Z,0.81
2022-08-26T14:29:56.655Z,1.00
2022-08-26T14:31:06.789Z,1.06
2022-08-26T14:32:21.378Z,1.31
2022-08-26T14:33:24.343Z,1.25
2022-08-26T14:34:28.726Z,0.88
2022-08-26T14:35:37.119Z,1.31
2022-08-26T14:36:43.057Z,1.00
2022-08-26T14:37:50.276Z,1.62
2022-08-26T14:38:58.525Z,1.56
2022-08-26T14:40:02.743Z,1.50
2022-08-26T14:41:09.392Z,1.69
2022-08-26T14:42:22.580Z,0.81
2022-08-26T14:43:32.397Z,1.50
2022-08-26T14:44:38.143Z,1.56
2022-08-26T14:45:44.634Z,1.62
2022-08-26T14:46:54.702Z,1.87
2022-08-26T14:48:30.007Z,1.12
2022-08-26T14:49:10.826Z,1.25
2022-08-26T14:50:20.768Z,1.31
2022-08-26T14:51:35.492Z,2.12
2022-08-26T14:52:44.000Z,1.37
2022-08-26T14:53:52.671Z,2.12
2022-08-26T14:54:57.261Z,1.44